Time;durP1;ratioP1;P1;durP2;ratioP2;P2;SDS_P1;SDS_P2;PMS_P1;PMS_P2;Temp;Humidity;BMP_temperature;BMP_pressure;BME280_temperature;BME280_humidity;BME280_pressure;Samples;Min_cycle;Max_cycle;Signal;HPM_P1;HPM_P2
2022/11/28 00:01:12;;;;;;;8.50;6.75;;;;;;;8.19;76.02;100904.50;5035107;28;20061;-61
2022/11/28 00:03:37;;;;;;;9.68;6.90;;;;;;;8.21;75.83;100901.47;5050817;28;20106;-61
2022/11/28 00:06:04;;;;;;;7.72;6.88;;;;;;;8.19;75.88;100901.72;5037690;28;20067;-61
2022/11/28 00:08:30;;;;;;;7.93;6.50;;;;;;;8.20;75.32;100897.03;5050143;28;20033;-61
2022/11/28 00:10:56;;;;;;;9.48;7.05;;;;;;;8.19;76.03;100893.44;5046732;28;20495;-61
2022/11/28 00:13:21;;;;;;;8.57;6.70;;;;;;;8.21;75.93;100890.41;5036989;28;20029;-61
2022/11/28 00:16:03;;;;;;;8.52;6.40;;;;;;;8.23;76.44;100891.03;5039961;28;20036;-61
2022/11/28 00:18:29;;;;;;;7.50;5.97;;;;;;;8.24;76.14;100901.00;5042428;28;20090;-61
2022/11/28 00:21:03;;;;;;;8.70;6.75;;;;;;;8.22;76.13;100883.81;5038680;28;20473;-61
2022/11/28 00:23:29;;;;;;;7.55;6.57;;;;;;;8.21;75.97;100880.19;5049826;28;20068;-61
2022/11/28 00:25:59;;;;;;;8.60;6.13;;;;;;;8.22;76.37;100881.91;5039695;28;20128;-61
2022/11/28 00:28:24;;;;;;;9.27;6.20;;;;;;;8.22;76.40;100892.13;5044338;28;20033;-61
2022/11/28 00:30:49;;;;;;;8.30;5.80;;;;;;;8.22;76.67;100881.06;5031219;28;20040;-61
2022/11/28 00:33:15;;;;;;;7.05;6.13;;;;;;;8.23;76.33;100877.22;5041651;28;20120;-61
2022/11/28 00:35:40;;;;;;;8.40;5.85;;;;;;;8.21;77.14;100873.81;5047483;28;20053;-61
2022/11/28 00:38:05;;;;;;;6.63;5.45;;;;;;;8.24;76.70;100868.66;5031416;28;20528;-61
2022/11/28 00:40:30;;;;;;;8.93;5.63;;;;;;;8.24;76.35;100873.34;5028119;28;20033;-61
2022/11/28 00:42:56;;;;;;;6.85;5.35;;;;;;;8.27;76.79;100879.25;5045731;28;20051;-61
2022/11/28 00:45:21;;;;;;;6.80;5.28;;;;;;;8.31;77.27;100869.41;5036006;28;20033;-61
2022/11/28 00:47:48;;;;;;;6.35;5.28;;;;;;;8.32;76.76;100867.47;5046639;28;20115;-61
2022/11/28 00:50:13;;;;;;;8.95;5.57;;;;;;;8.35;77.23;100858.72;5035298;28;20032;-60
2022/11/28 00:52:38;;;;;;;6.28;5.10;;;;;;;8.34;76.22;100855.09;5042156;28;20024;-61
2022/11/28 00:55:04;;;;;;;6.28;5.22;;;;;;;8.36;76.50;100860.38;5038900;28;20436;-61
2022/11/28 00:57:29;;;;;;;6.97;5.32;;;;;;;8.37;76.97;100848.31;5048995;28;20410;-61
2022/11/28 00:59:54;;;;;;;9.07;5.68;;;;;;;8.38;76.29;100849.97;5033110;28;20063;-61
2022/11/28 01:02:20;;;;;;;6.20;5.22;;;;;;;8.38;76.78;100852.75;5036155;28;20083;-61
2022/11/28 01:04:45;;;;;;;7.53;5.55;;;;;;;8.40;76.65;100855.25;5041263;28;20032;-61
2022/11/28 01:07:10;;;;;;;7.53;5.45;;;;;;;8.41;76.50;100863.34;5043461;28;20025;-61
2022/11/28 01:09:35;;;;;;;5.57;4.95;;;;;;;8.39;76.43;100859.13;5047081;28;20033;-61
2022/11/28 01:12:01;;;;;;;7.43;5.63;;;;;;;8.38;76.68;100865.72;5046828;28;20033;-62
2022/11/28 01:14:26;;;;;;;6.93;5.60;;;;;;;8.37;77.08;100862.13;5040664;28;20063;-61
2022/11/28 01:16:52;;;;;;;6.82;5.32;;;;;;;8.36;77.16;100861.22;5042238;28;20108;-61
2022/11/28 01:19:17;;;;;;;8.25;6.28;;;;;;;8.38;77.61;100858.28;5034161;28;20033;-61
2022/11/28 01:21:43;;;;;;;7.03;5.38;;;;;;;8.41;77.60;100865.22;5032623;28;20033;-61
2022/11/28 01:24:09;;;;;;;9.18;5.53;;;;;;;8.41;77.49;100848.63;5045606;28;20090;-61
2022/11/28 01:26:37;;;;;;;6.28;5.03;;;;;;;8.39;77.56;100859.94;5040565;28;20025;-61
2022/11/28 01:29:02;;;;;;;5.53;4.97;;;;;;;8.39;77.08;100856.34;5039025;28;20025;-61
2022/11/28 01:31:29;;;;;;;7.85;5.50;;;;;;;8.40;76.97;100860.78;5027371;28;20038;-61
2022/11/28 01:33:55;;;;;;;5.80;5.05;;;;;;;8.41;77.10;100857.81;5048549;28;20037;-61
2022/11/28 01:36:21;;;;;;;6.25;5.20;;;;;;;8.42;77.63;100864.19;5043599;28;20064;-61
2022/11/28 01:38:47;;;;;;;5.63;4.70;;;;;;;8.41;77.28;100857.81;5025692;28;20065;-61
2022/11/28 01:41:15;;;;;;;7.47;5.25;;;;;;;8.40;77.71;100861.63;5039999;28;20075;-61
2022/11/28 01:44:05;;;;;;;7.55;4.70;;;;;;;8.41;78.46;100863.34;5034311;28;20048;-61
2022/11/28 01:46:31;;;;;;;6.85;4.60;;;;;;;8.39;78.22;100861.88;5039474;28;20040;-61
2022/11/28 01:49:01;;;;;;;8.82;5.13;;;;;;;8.38;79.29;100858.28;5035670;28;20034;-61
2022/11/28 01:51:28;;;;;;;5.30;4.43;;;;;;;8.34;79.51;100859.81;5036033;28;20064;-61
2022/11/28 01:53:54;;;;;;;6.13;4.72;;;;;;;8.34;79.53;100857.03;5025104;28;20130;-61
2022/11/28 01:56:25;;;;;;;9.13;4.32;;;;;;;8.35;79.78;100858.72;5031195;28;20428;-61
2022/11/28 01:58:59;;;;;;;5.25;4.60;;;;;;;8.34;79.76;100857.03;5041532;28;20774;-61
2022/11/28 02:01:25;;;;;;;5.57;4.35;;;;;;;8.35;79.90;100856.78;5042679;28;20063;-61
2022/11/28 02:03:52;;;;;;;7.03;4.85;;;;;;;8.36;80.09;100852.94;5048206;28;20033;-61
2022/11/28 02:06:21;;;;;;;5.35;4.68;;;;;;;8.38;79.77;100851.91;5037334;28;20028;-61
2022/11/28 02:08:50;;;;;;;7.10;5.07;;;;;;;8.37;79.51;100845.53;5037654;28;20569;-61
2022/11/28 02:11:21;;;;;;;6.35;4.70;;;;;;;8.39;80.14;100843.34;5039493;28;20025;-61
2022/11/28 02:14:06;;;;;;;4.97;4.40;;;;;;;8.41;79.49;100843.97;5045992;28;20021;-61
2022/11/28 02:16:37;;;;;;;8.23;4.43;;;;;;;8.41;79.76;100843.09;5026925;28;20091;-61
2022/11/28 02:19:45;;;;;;;5.85;4.63;;;;;;;8.44;79.37;100832.41;5044044;28;20074;-61
2022/11/28 02:22:24;;;;;;;6.65;4.35;;;;;;;8.44;80.07;100834.34;5016734;28;20084;-61
2022/11/28 02:25:21;;;;;;;6.13;4.40;;;;;;;8.42;80.07;100833.75;5034192;28;20030;-61
2022/11/28 02:28:10;;;;;;;4.63;4.00;;;;;;;8.43;79.86;100833.50;5045596;28;20087;-61
2022/11/28 02:30:47;;;;;;;4.97;4.47;;;;;;;8.43;79.71;100839.03;5028666;28;20068;-61
2022/11/28 02:33:23;;;;;;;5.82;4.55;;;;;;;8.37;80.46;100834.47;5044494;28;20159;-61
2022/11/28 02:36:05;;;;;;;6.40;4.75;;;;;;;8.37;80.04;100834.47;5030677;28;20052;-61
2022/11/28 02:38:33;;;;;;;5.28;4.25;;;;;;;8.35;79.84;100829.13;5039106;28;20052;-61
2022/11/28 02:41:41;;;;;;;4.75;4.18;;;;;;;8.37;79.99;100840.00;5034436;28;20043;-61
2022/11/28 02:44:15;;;;;;;7.63;4.22;;;;;;;8.32;80.05;100837.06;5033593;28;20045;-61
2022/11/28 02:47:22;;;;;;;4.60;4.07;;;;;;;8.35;79.96;100837.44;5040023;28;20616;-61
2022/11/28 02:50:11;;;;;;;6.63;4.18;;;;;;;8.36;79.85;100835.50;5030466;28;20040;-61
2022/11/28 02:52:44;;;;;;;5.95;4.22;;;;;;;8.32;79.96;100835.13;5039258;28;20072;-61
2022/11/28 02:55:11;;;;;;;4.70;4.05;;;;;;;8.30;79.94;100834.53;5035138;28;20057;-61
2022/11/28 02:57:39;;;;;;;5.97;4.30;;;;;;;8.34;79.88;100834.91;5045936;28;20111;-61
2022/11/28 03:00:42;;;;;;;7.00;3.88;;;;;;;8.38;80.25;100833.38;5030672;28;20084;-61
2022/11/28 03:03:10;;;;;;;4.72;3.97;;;;;;;8.34;80.16;100821.91;5039819;28;20056;-61
2022/11/28 03:05:50;;;;;;;4.20;3.80;;;;;;;8.33;80.37;100819.38;5032531;28;20034;-61
2022/11/28 03:08:34;;;;;;;8.20;4.25;;;;;;;8.36;80.31;100821.66;5043457;28;20029;-61
2022/11/28 03:11:26;;;;;;;6.57;3.55;;;;;;;8.36;80.80;100816.97;5032368;28;20061;-61
2022/11/28 03:14:29;;;;;;;4.97;4.40;;;;;;;8.38;80.34;100811.25;5050235;28;20048;-61
2022/11/28 03:17:17;;;;;;;5.07;3.78;;;;;;;8.39;80.37;100815.69;5031700;28;20045;-61
2022/11/28 03:19:57;;;;;;;5.20;4.05;;;;;;;8.39;80.05;100814.88;5044188;28;20064;-61
2022/11/28 03:22:27;;;;;;;4.10;3.67;;;;;;;8.34;80.70;100813.63;5041288;28;20031;-61
2022/11/28 03:25:04;;;;;;;5.80;4.28;;;;;;;8.32;81.08;100806.63;5053807;28;20054;-61
2022/11/28 03:27:42;;;;;;;6.85;4.22;;;;;;;8.32;80.63;100815.78;5036482;28;20384;-61
2022/11/28 03:30:18;;;;;;;5.88;4.15;;;;;;;8.27;81.22;100818.41;5046756;28;20464;-61
2022/11/28 03:32:46;;;;;;;5.78;3.92;;;;;;;8.23;81.65;100811.69;5039996;28;20025;-61
2022/11/28 03:35:20;;;;;;;6.30;4.43;;;;;;;8.25;81.08;100815.06;5038545;28;20142;-61
2022/11/28 03:37:52;;;;;;;7.07;3.92;;;;;;;8.25;81.30;100819.72;5048403;28;20025;-61
2022/11/28 03:40:24;;;;;;;5.13;3.95;;;;;;;8.25;81.06;100808.66;5029757;28;20119;-61
2022/11/28 03:43:11;;;;;;;3.97;3.58;;;;;;;8.29;81.70;100818.16;5042235;28;20041;-61
2022/11/28 03:45:42;;;;;;;4.22;3.47;;;;;;;8.20;81.57;100816.84;5032824;28;20037;-61
2022/11/28 03:48:30;;;;;;;5.57;3.92;;;;;;;8.25;81.76;100811.44;5037739;28;20013;-61
2022/11/28 03:51:22;;;;;;;4.72;3.70;;;;;;;8.26;81.67;100810.38;5034892;28;20059;-61
2022/11/28 03:54:09;;;;;;;4.20;3.30;;;;;;;8.25;81.92;100808.66;5047831;28;20785;-62
2022/11/28 03:57:01;;;;;;;3.90;3.50;;;;;;;8.22;81.49;100809.19;5039725;28;20129;-61
2022/11/28 03:59:38;;;;;;;5.65;3.67;;;;;;;8.22;81.69;100818.31;5034217;28;20040;-62
2022/11/28 04:02:10;;;;;;;5.22;3.90;;;;;;;8.22;82.12;100811.94;5033760;28;20041;-62
2022/11/28 04:04:59;;;;;;;4.37;3.73;;;;;;;8.24;81.66;100809.75;5038481;28;20040;-61
2022/11/28 04:07:45;;;;;;;6.05;4.35;;;;;;;8.22;81.76;100807.25;5036206;28;20295;-61
2022/11/28 04:10:19;;;;;;;4.63;3.88;;;;;;;8.23;81.31;100817.22;5025242;28;20029;-61
2022/11/28 04:13:00;;;;;;;4.55;3.83;;;;;;;8.27;81.70;100821.19;5040737;28;20026;-61
2022/11/28 04:15:25;;;;;;;4.70;4.00;;;;;;;8.23;82.11;100819.97;5048948;28;20029;-61
2022/11/28 04:18:01;;;;;;;6.95;4.25;;;;;;;8.23;82.17;100811.69;5029973;28;20527;-61
2022/11/28 04:20:45;;;;;;;6.57;4.20;;;;;;;8.24;81.79;100818.06;5037432;28;20037;-61
2022/11/28 04:23:15;;;;;;;5.10;3.55;;;;;;;8.24;81.93;100812.53;5036744;28;20041;-61
2022/11/28 04:25:48;;;;;;;6.13;3.70;;;;;;;8.18;82.16;100824.56;5048628;28;20425;-61
2022/11/28 04:28:19;;;;;;;5.65;3.90;;;;;;;8.20;81.78;100822.38;5035077;28;20100;-60
2022/11/28 04:30:48;;;;;;;4.35;3.65;;;;;;;8.19;82.01;100813.25;5043786;28;20029;-61
2022/11/28 04:33:16;;;;;;;4.47;4.07;;;;;;;8.21;81.70;100824.91;5033729;28;20045;-61
2022/11/28 04:35:46;;;;;;;7.03;3.72;;;;;;;8.22;82.56;100812.78;5038698;28;20060;-61
2022/11/28 04:38:12;;;;;;;5.10;4.25;;;;;;;8.21;82.14;100824.06;5043629;28;20033;-62
2022/11/28 04:40:42;;;;;;;4.28;3.88;;;;;;;8.21;82.62;100810.22;5042503;28;20095;-62
2022/11/28 04:43:17;;;;;;;5.47;4.03;;;;;;;8.20;82.50;100811.31;5037631;28;20495;-61
2022/11/28 04:45:52;;;;;;;4.28;3.88;;;;;;;8.19;82.43;100812.41;5047858;28;20021;-61
2022/11/28 04:48:17;;;;;;;4.00;3.47;;;;;;;8.23;82.68;100819.16;5038076;28;20483;-62
2022/11/28 04:50:52;;;;;;;6.45;4.20;;;;;;;8.20;82.63;100817.69;5036498;28;20048;-61
2022/11/28 04:53:30;;;;;;;6.45;3.92;;;;;;;8.18;82.72;100808.81;5030569;28;20032;-61
2022/11/28 04:56:00;;;;;;;4.90;4.10;;;;;;;8.22;82.43;100817.47;5018647;28;20029;-61
2022/11/28 04:58:34;;;;;;;4.30;3.90;;;;;;;8.21;82.86;100813.84;5048742;28;20032;-61
2022/11/28 05:01:05;;;;;;;4.55;4.05;;;;;;;8.17;82.71;100817.31;5035153;28;20075;-61
2022/11/28 05:03:31;;;;;;;4.63;4.18;;;;;;;8.16;82.61;100818.41;5037196;28;20144;-61
2022/11/28 05:05:56;;;;;;;4.75;4.35;;;;;;;8.19;82.43;100815.16;5039099;28;20475;-61
2022/11/28 05:08:22;;;;;;;4.40;3.95;;;;;;;8.20;82.63;100817.69;5040867;28;20049;-61
2022/11/28 05:10:47;;;;;;;5.00;4.43;;;;;;;8.23;82.21;100821.91;5043124;28;20477;-61
2022/11/28 05:13:13;;;;;;;5.13;4.05;;;;;;;8.23;82.72;100821.91;5033896;28;20025;-61
2022/11/28 05:15:38;;;;;;;5.28;4.32;;;;;;;8.21;82.81;100824.06;5034058;28;20106;-61
2022/11/28 05:18:04;;;;;;;5.45;4.95;;;;;;;8.24;82.67;100824.41;5046177;28;20032;-61
2022/11/28 05:20:30;;;;;;;4.63;4.07;;;;;;;8.23;82.54;100833.81;5022273;28;20041;-61
2022/11/28 05:22:55;;;;;;;5.40;4.90;;;;;;;8.23;82.91;100830.19;5028028;28;20497;-61
2022/11/28 05:25:21;;;;;;;5.40;4.88;;;;;;;8.23;82.47;100819.97;5032933;28;20021;-61
2022/11/28 05:27:46;;;;;;;4.90;4.22;;;;;;;8.28;82.78;100824.78;5028073;28;20033;-61
2022/11/28 05:30:12;;;;;;;5.85;4.80;;;;;;;8.25;83.16;100830.78;5043017;28;20024;-61
2022/11/28 05:32:38;;;;;;;5.57;4.90;;;;;;;8.29;82.78;100829.22;5036976;28;20021;-60
2022/11/28 05:35:04;;;;;;;5.10;4.60;;;;;;;8.27;82.70;100823.13;5035301;28;20496;-61
2022/11/28 05:37:29;;;;;;;5.60;4.90;;;;;;;8.27;82.65;100829.47;5047203;28;20090;-61
2022/11/28 05:39:55;;;;;;;5.55;5.05;;;;;;;8.28;82.74;100833.09;5033931;28;20473;-61
2022/11/28 05:42:20;;;;;;;6.07;4.75;;;;;;;8.25;82.84;100839.09;5043768;28;20034;-61
2022/11/28 05:44:46;;;;;;;6.15;5.03;;;;;;;8.26;83.05;100832.50;5038849;28;20556;-61
2022/11/28 05:47:12;;;;;;;5.30;4.80;;;;;;;8.25;83.10;100839.09;5035514;28;20041;-61
2022/11/28 05:49:37;;;;;;;5.70;5.00;;;;;;;8.25;83.32;100839.09;5043234;28;20369;-61
2022/11/28 05:52:03;;;;;;;5.50;4.93;;;;;;;8.24;83.46;100835.47;5047496;28;20040;-61
2022/11/28 05:54:29;;;;;;;5.30;4.80;;;;;;;8.28;83.14;100836.69;5042528;28;20116;-61
2022/11/28 05:56:55;;;;;;;5.70;5.10;;;;;;;8.30;82.57;100829.00;5038560;28;20408;-61
2022/11/28 05:59:20;;;;;;;5.60;5.10;;;;;;;8.34;82.59;100837.69;5021598;28;20548;-61
2022/11/28 06:01:45;;;;;;;5.53;5.03;;;;;;;8.36;82.51;100832.72;5023792;28;20040;-61
2022/11/28 06:04:11;;;;;;;5.97;5.00;;;;;;;8.37;82.99;100828.94;5032935;28;20028;-61
2022/11/28 06:06:36;;;;;;;5.35;4.85;;;;;;;8.35;82.95;100826.38;5039433;28;20479;-61
2022/11/28 06:09:03;;;;;;;5.80;5.30;;;;;;;8.36;83.28;100829.97;5043693;28;20068;-61
2022/11/28 06:11:30;;;;;;;5.95;5.07;;;;;;;8.38;82.74;100833.38;5033065;28;20083;-61
2022/11/28 06:13:55;;;;;;;6.07;5.47;;;;;;;8.36;83.25;100830.81;5047358;28;20044;-61
2022/11/28 06:16:24;;;;;;;5.25;4.75;;;;;;;8.41;82.81;100838.44;5035758;28;20483;-61
2022/11/28 06:18:54;;;;;;;5.53;5.03;;;;;;;8.40;82.76;100839.50;5038692;28;20136;-61
2022/11/28 06:21:19;;;;;;;6.88;5.18;;;;;;;8.41;82.50;100835.69;5037792;28;20043;-62
2022/11/28 06:23:45;;;;;;;4.97;4.57;;;;;;;8.45;82.60;100836.88;5027983;28;20025;-61
2022/11/28 06:26:13;;;;;;;5.75;5.25;;;;;;;8.46;82.74;100844.09;5035271;28;20021;-61
2022/11/28 06:28:39;;;;;;;5.80;5.20;;;;;;;8.46;82.60;100843.25;5038556;28;20125;-61
2022/11/28 06:31:10;;;;;;;6.55;5.90;;;;;;;8.45;82.63;100841.53;5032497;28;20033;-61
2022/11/28 06:33:35;;;;;;;6.43;5.50;;;;;;;8.46;82.75;100854.31;5037552;28;20051;-61
2022/11/28 06:36:02;;;;;;;5.80;5.30;;;;;;;8.47;82.91;100853.22;5034216;28;20488;-61
2022/11/28 06:38:28;;;;;;;6.28;5.68;;;;;;;8.47;82.47;100847.69;5026319;28;20028;-61
2022/11/28 06:40:57;;;;;;;5.75;5.25;;;;;;;8.50;82.25;100850.81;5026705;28;20033;-61
2022/11/28 06:43:23;;;;;;;6.03;5.43;;;;;;;8.50;82.81;100856.34;5025257;28;20403;-61
2022/11/28 06:45:48;;;;;;;7.50;5.88;;;;;;;8.48;82.88;100852.97;5045229;28;20025;-61
2022/11/28 06:48:13;;;;;;;6.20;5.70;;;;;;;8.49;82.50;100851.03;5033287;28;20029;-60
2022/11/28 06:50:39;;;;;;;6.47;5.88;;;;;;;8.48;82.46;100846.59;5028691;28;20032;-61
2022/11/28 06:53:04;;;;;;;7.15;6.45;;;;;;;8.47;82.68;100845.78;5027701;28;20508;-61
2022/11/28 06:55:29;;;;;;;6.45;5.85;;;;;;;8.47;82.96;100848.53;5025050;28;20030;-60
2022/11/28 06:57:55;;;;;;;6.65;6.13;;;;;;;8.49;82.76;100848.28;5032397;28;20052;-61
2022/11/28 07:00:20;;;;;;;6.78;6.20;;;;;;;8.49;82.20;100853.81;5035702;28;20480;-60
2022/11/28 07:02:45;;;;;;;7.28;6.35;;;;;;;8.49;82.89;100856.59;5034070;28;20048;-60
2022/11/28 07:05:10;;;;;;;6.32;5.72;;;;;;;8.52;82.47;100854.19;5028945;28;20431;-61
2022/11/28 07:07:36;;;;;;;9.20;6.63;;;;;;;8.50;83.15;100856.34;5040153;28;20056;-61
2022/11/28 07:10:01;;;;;;;7.35;6.63;;;;;;;8.50;82.77;100858.28;5043999;28;20028;-61
2022/11/28 07:12:26;;;;;;;7.28;6.57;;;;;;;8.52;82.53;100856.94;5037248;28;20060;-62
2022/11/28 07:14:52;;;;;;;6.63;6.03;;;;;;;8.53;82.43;100861.41;5035685;28;20080;-61
2022/11/28 07:17:17;;;;;;;7.85;6.78;;;;;;;8.52;82.26;100856.94;5045003;28;20035;-60
2022/11/28 07:19:42;;;;;;;8.70;7.32;;;;;;;8.52;82.72;100861.63;5032657;28;20068;-60
2022/11/28 07:22:10;;;;;;;8.30;7.47;;;;;;;8.52;82.85;100856.94;5036116;28;20025;-60
2022/11/28 07:24:35;;;;;;;7.70;6.95;;;;;;;8.54;82.33;100859.50;5043382;28;20033;-60
2022/11/28 07:27:00;;;;;;;8.88;7.80;;;;;;;8.54;83.04;100856.72;5022884;28;20383;-60
2022/11/28 07:29:34;;;;;;;7.70;7.00;;;;;;;8.53;82.91;100868.88;5019692;28;20493;-60
2022/11/28 07:31:59;;;;;;;7.68;6.93;;;;;;;8.52;83.00;100864.41;5026970;28;20037;-60
2022/11/28 07:34:25;;;;;;;8.90;7.60;;;;;;;8.53;82.78;100875.25;5039548;28;20598;-61
2022/11/28 07:36:50;;;;;;;8.05;7.25;;;;;;;8.52;82.88;100870.78;5008736;28;20038;-61
2022/11/28 07:39:18;;;;;;;8.75;7.32;;;;;;;8.55;82.46;100875.00;5019095;28;20119;-61
2022/11/28 07:41:44;;;;;;;7.95;7.15;;;;;;;8.56;83.09;100882.22;5026756;28;20048;-60
2022/11/28 07:44:10;;;;;;;7.97;7.18;;;;;;;8.55;83.21;100884.13;5031273;28;20029;-61
2022/11/28 07:46:35;;;;;;;7.68;6.82;;;;;;;8.57;83.16;100878.38;5031250;28;20060;-60
2022/11/28 07:49:03;;;;;;;8.75;6.70;;;;;;;8.65;84.28;100880.78;5024060;28;20057;-61
2022/11/28 07:51:31;;;;;;;7.32;6.65;;;;;;;8.64;82.93;100884.63;5023788;28;20033;-61
2022/11/28 07:53:57;;;;;;;7.88;7.18;;;;;;;8.65;82.91;100879.97;5027879;28;20428;-61
2022/11/28 07:56:29;;;;;;;9.30;7.75;;;;;;;8.62;82.97;100892.34;5026193;28;20125;-61
2022/11/28 07:58:54;;;;;;;7.40;6.80;;;;;;;8.64;83.02;100897.63;5042392;28;20420;-61
2022/11/28 08:01:22;;;;;;;7.63;6.85;;;;;;;8.63;82.67;100902.31;5038526;28;20044;-61
2022/11/28 08:03:51;;;;;;;7.50;6.80;;;;;;;8.65;82.66;100900.16;5021972;28;20672;-61
2022/11/28 08:06:18;;;;;;;7.47;6.80;;;;;;;8.64;83.27;100901.22;5038371;28;20056;-61
2022/11/28 08:08:45;;;;;;;9.05;7.57;;;;;;;8.63;83.15;100895.94;5039665;28;20025;-61
2022/11/28 08:11:11;;;;;;;7.55;6.85;;;;;;;8.64;82.61;100897.63;5038415;28;20454;-62
2022/11/28 08:13:37;;;;;;;7.93;7.13;;;;;;;8.67;83.36;100899.91;5043805;28;20053;-62
2022/11/28 08:16:13;;;;;;;9.27;7.60;;;;;;;8.65;83.06;100896.56;5029717;28;20148;-62
2022/11/28 08:18:38;;;;;;;7.95;7.15;;;;;;;8.68;83.05;100909.88;5024991;28;20416;-63
2022/11/28 08:21:06;;;;;;;7.13;6.40;;;;;;;8.66;83.34;100898.22;5027278;28;20033;-62
2022/11/28 08:23:34;;;;;;;8.35;7.38;;;;;;;8.66;83.55;100909.31;5031727;28;20469;-62
2022/11/28 08:26:05;;;;;;;8.27;7.28;;;;;;;8.68;83.12;100904.34;5028683;28;20029;-62
2022/11/28 08:28:30;;;;;;;8.13;7.32;;;;;;;8.69;83.57;100904.13;5025770;28;20507;-63
2022/11/28 08:30:58;;;;;;;7.75;7.05;;;;;;;8.71;83.35;100912.19;5030796;28;20037;-62
2022/11/28 08:33:24;;;;;;;9.85;7.53;;;;;;;8.72;83.69;100905.56;5022211;28;20030;-63
2022/11/28 08:35:50;;;;;;;8.00;7.07;;;;;;;8.73;83.37;100910.03;5018908;28;20061;-62
2022/11/28 08:38:15;;;;;;;8.73;7.22;;;;;;;8.74;83.06;100911.72;5039246;28;20531;-61
2022/11/28 08:40:41;;;;;;;8.90;8.00;;;;;;;8.72;83.27;100909.16;5027952;28;20032;-61
2022/11/28 08:43:06;;;;;;;9.45;7.78;;;;;;;8.71;83.36;100920.50;5030151;28;20764;-59
2022/11/28 08:45:35;;;;;;;9.43;8.43;;;;;;;8.68;83.68;100920.97;5034459;28;20055;-60
2022/11/28 08:48:00;;;;;;;8.77;7.88;;;;;;;8.67;83.69;100916.50;5026803;28;20543;-60
2022/11/28 08:50:25;;;;;;;9.05;8.15;;;;;;;8.70;83.63;100919.66;5029418;28;20041;-59
2022/11/28 08:52:51;;;;;;;10.52;8.48;;;;;;;8.71;83.51;100921.31;5021127;28;20034;-60
2022/11/28 08:55:16;;;;;;;10.00;9.00;;;;;;;8.73;83.59;100921.09;5032667;28;20495;-61
2022/11/28 08:57:41;;;;;;;10.20;9.02;;;;;;;8.80;84.50;100910.72;5036048;28;20041;-60
2022/11/28 09:00:07;;;;;;;9.60;8.10;;;;;;;8.83;83.93;100916.63;5032337;28;20017;-59
2022/11/28 09:02:32;;;;;;;9.65;8.68;;;;;;;9.00;84.09;100918.69;5029372;28;20553;-62
2022/11/28 09:04:58;;;;;;;9.45;8.45;;;;;;;8.97;83.74;100911.72;5030172;28;20108;-62
2022/11/28 09:07:23;;;;;;;10.23;8.35;;;;;;;8.96;83.25;100914.72;5028740;28;20039;-61
2022/11/28 09:09:48;;;;;;;9.00;8.10;;;;;;;8.96;83.59;100914.72;5040802;28;20049;-61
2022/11/28 09:12:13;;;;;;;9.27;8.25;;;;;;;8.96;83.28;100921.13;5022986;28;20033;-61
2022/11/28 09:14:39;;;;;;;9.32;8.30;;;;;;;8.95;83.55;100918.56;5030447;28;20147;-62
2022/11/28 09:17:04;;;;;;;8.88;7.97;;;;;;;8.94;83.02;100923.28;5035154;28;20025;-62
2022/11/28 09:19:30;;;;;;;8.77;7.95;;;;;;;8.95;83.45;100921.34;5027352;28;20044;-60
2022/11/28 09:21:55;;;;;;;10.50;8.20;;;;;;;8.93;83.61;100929.06;5029978;28;20385;-60
2022/11/28 09:24:20;;;;;;;9.30;8.13;;;;;;;8.94;83.69;100936.28;5034893;28;20030;-60
2022/11/28 09:26:45;;;;;;;9.75;7.72;;;;;;;8.94;83.53;100939.88;5032058;28;20380;-60
2022/11/28 09:29:11;;;;;;;9.25;8.35;;;;;;;8.95;83.50;100938.78;5037832;28;20028;-60
2022/11/28 09:31:36;;;;;;;8.77;7.88;;;;;;;8.94;83.78;100936.28;5043786;28;20488;-62
2022/11/28 09:34:02;;;;;;;9.23;7.65;;;;;;;8.95;83.65;100947.09;5034130;28;20053;-61
2022/11/28 09:36:29;;;;;;;9.80;7.40;;;;;;;8.97;83.52;100936.63;5033623;28;20070;-62
2022/11/28 09:38:56;;;;;;;8.85;7.65;;;;;;;8.97;84.08;100933.88;5038217;28;20027;-63
2022/11/28 09:41:30;;;;;;;9.55;8.00;;;;;;;8.95;84.09;100936.03;5024661;28;20054;-63
2022/11/28 09:44:06;;;;;;;8.82;7.88;;;;;;;8.93;84.05;100932.66;5025891;28;20037;-63
2022/11/28 09:46:34;;;;;;;9.85;7.68;;;;;;;8.96;83.74;100931.31;5035998;28;20033;-64
2022/11/28 09:49:08;;;;;;;9.20;8.18;;;;;;;8.97;83.96;100938.56;5021742;28;20048;-64
2022/11/28 09:51:54;;;;;;;8.73;7.60;;;;;;;9.00;84.27;100941.69;5022799;28;20025;-64
2022/11/28 09:54:31;;;;;;;11.50;8.15;;;;;;;8.99;84.37;100931.69;5040587;28;20063;-64
2022/11/28 09:56:57;;;;;;;10.75;8.82;;;;;;;9.00;84.19;100938.06;5032675;28;20033;-64
2022/11/28 09:59:29;;;;;;;10.00;8.05;;;;;;;9.02;83.93;100949.75;5035389;28;20043;-64
2022/11/28 10:02:25;;;;;;;12.67;9.57;;;;;;;9.05;84.02;100941.81;5039346;28;20037;-63
2022/11/28 10:04:59;;;;;;;9.70;8.70;;;;;;;9.03;84.57;100941.19;5017351;28;20304;-64
2022/11/28 10:08:15;;;;;;;11.05;9.10;;;;;;;9.05;84.26;100941.81;5024719;28;20033;-64
2022/11/28 10:10:56;;;;;;;10.63;9.50;;;;;;;9.06;84.18;100939.88;5014921;28;20868;-64
2022/11/28 10:14:05;;;;;;;13.05;9.63;;;;;;;9.10;84.10;100939.16;5012395;28;20667;-65
2022/11/28 10:17:18;;;;;;;12.05;9.68;;;;;;;9.13;83.87;100939.75;4993781;28;20049;-63
2022/11/28 10:19:54;;;;;;;11.95;9.60;;;;;;;9.15;84.72;100941.19;4966086;28;20049;-64
2022/11/28 10:22:34;;;;;;;10.90;9.73;;;;;;;9.14;84.71;100939.50;4967624;28;20046;-63
2022/11/28 10:25:06;;;;;;;12.50;10.32;;;;;;;9.14;84.70;100939.50;4993952;28;20041;-64
2022/11/28 10:27:34;;;;;;;12.65;10.73;;;;;;;9.16;84.23;100942.06;5011306;28;20032;-63
2022/11/28 10:30:14;;;;;;;13.05;11.43;;;;;;;9.17;84.96;100938.19;5009158;28;20033;-61
2022/11/28 10:32:43;;;;;;;12.07;10.75;;;;;;;9.15;84.89;100930.13;5012853;28;20033;-62
2022/11/28 10:35:35;;;;;;;12.95;10.82;;;;;;;9.19;84.52;100931.31;5008641;28;20741;-65
2022/11/28 10:38:01;;;;;;;12.50;10.63;;;;;;;9.20;84.82;100937.72;5011493;28;20057;-65
2022/11/28 10:40:52;;;;;;;14.93;10.80;;;;;;;9.20;84.84;100940.50;5017631;28;21456;-63
2022/11/28 10:43:42;;;;;;;13.35;11.35;;;;;;;9.25;84.56;100943.38;5032812;28;20045;-65
2022/11/28 10:46:28;;;;;;;13.20;11.80;;;;;;;9.26;85.21;100945.88;5030480;28;20074;-60
2022/11/28 10:49:07;;;;;;;13.55;12.15;;;;;;;9.26;84.72;100948.66;5029082;28;20037;-63
2022/11/28 10:51:50;;;;;;;22.05;19.92;;;;;;;9.26;84.68;100950.59;5043705;28;20381;-62
2022/11/28 10:54:34;;;;;;;28.85;26.25;;;;;;;9.26;84.85;100951.41;5022405;28;20031;-62
2022/11/28 10:57:10;;;;;;;19.88;17.77;;;;;;;9.23;85.26;100951.06;5024033;28;20033;-61
2022/11/28 11:00:00;;;;;;;16.90;15.15;;;;;;;9.26;85.06;100953.34;5023650;28;20028;-60
2022/11/28 11:02:35;;;;;;;16.50;13.95;;;;;;;9.24;85.62;100956.38;5027230;28;20385;-60
2022/11/28 11:05:01;;;;;;;19.05;15.20;;;;;;;9.25;85.50;100954.44;5025825;28;20029;-61
2022/11/28 11:07:29;;;;;;;17.70;15.50;;;;;;;9.25;85.51;100959.97;5025299;28;20025;-61
2022/11/28 11:10:01;;;;;;;19.40;15.40;;;;;;;9.27;85.18;100957.81;5027125;28;20037;-60
2022/11/28 11:12:31;;;;;;;21.67;17.08;;;;;;;9.25;85.28;100952.50;5023362;28;20381;-61
2022/11/28 11:14:56;;;;;;;20.38;16.20;;;;;;;9.28;85.50;100952.03;5031800;28;20036;-61
2022/11/28 11:17:32;;;;;;;19.83;16.52;;;;;;;9.29;85.27;100947.34;5040481;28;20036;-61
2022/11/28 11:19:57;;;;;;;20.10;16.67;;;;;;;9.30;85.36;100947.09;5036953;28;20040;-60
2022/11/28 11:22:30;;;;;;;20.00;15.77;;;;;;;9.34;85.69;100950.22;5029564;28;20037;-60
2022/11/28 11:25:14;;;;;;;22.75;18.13;;;;;;;9.30;85.91;100944.31;5026416;28;20056;-61
2022/11/28 11:27:54;;;;;;;22.33;17.58;;;;;;;9.36;85.51;100950.00;5024745;28;20548;-61
2022/11/28 11:30:34;;;;;;;23.77;17.45;;;;;;;9.36;85.76;100947.22;5030070;28;20112;-60
2022/11/28 11:33:02;;;;;;;21.63;17.40;;;;;;;9.35;85.43;100951.88;5020200;28;20167;-61
2022/11/28 11:35:35;;;;;;;20.33;17.15;;;;;;;9.37;85.91;100944.19;5028572;28;20061;-60
2022/11/28 11:38:34;;;;;;;21.75;17.67;;;;;;;9.41;85.52;100939.84;5030082;28;20036;-60
2022/11/28 11:41:28;;;;;;;21.20;17.05;;;;;;;9.41;85.54;100942.63;5000653;28;20365;-60
2022/11/28 11:43:55;;;;;;;21.58;17.67;;;;;;;9.39;85.66;100942.00;5027902;28;20043;-61
2022/11/28 11:46:20;;;;;;;24.48;18.38;;;;;;;9.40;85.66;100940.09;5020303;28;20033;-60
2022/11/28 11:48:48;;;;;;;21.70;18.02;;;;;;;9.41;85.67;100945.38;5029567;28;20026;-60
2022/11/28 11:51:24;;;;;;;25.70;19.38;;;;;;;9.43;85.68;100943.22;5029932;28;20029;-60